sensor_id;sensor_type;location;lat;lon;timestamp;P1;durP1;ratioP1;P2;durP2;ratioP2
6209;SDS011;3138;52.550;13.148;2024-03-08T00:00:14;55.50;;;22.10;;
6209;SDS011;3138;52.550;13.148;2024-03-08T00:02:44;44.73;;;22.73;;
6209;SDS011;3138;52.550;13.148;2024-03-08T00:05:12;40.53;;;21.17;;
6209;SDS011;3138;52.550;13.148;2024-03-08T00:07:41;54.47;;;23.30;;
6209;SDS011;3138;52.550;13.148;2024-03-08T00:10:09;48.83;;;22.53;;
6209;SDS011;3138;52.550;13.148;2024-03-08T00:12:37;45.00;;;21.37;;
6209;SDS011;3138;52.550;13.148;2024-03-08T00:15:07;52.97;;;24.57;;
6209;SDS011;3138;52.550;13.148;2024-03-08T00:17:34;50.80;;;23.23;;
6209;SDS011;3138;52.550;13.148;2024-03-08T00:20:01;53.50;;;26.60;;
6209;SDS011;3138;52.550;13.148;2024-03-08T00:22:33;75.37;;;29.43;;
6209;SDS011;3138;52.550;13.148;2024-03-08T00:25:02;60.50;;;26.43;;
6209;SDS011;3138;52.550;13.148;2024-03-08T00:27:29;82.47;;;28.80;;
6209;SDS011;3138;52.550;13.148;2024-03-08T00:29:56;55.67;;;26.33;;
6209;SDS011;3138;52.550;13.148;2024-03-08T00:32:23;56.43;;;26.40;;
6209;SDS011;3138;52.550;13.148;2024-03-08T00:34:50;55.57;;;24.73;;
6209;SDS011;3138;52.550;13.148;2024-03-08T00:37:17;58.00;;;24.57;;
6209;SDS011;3138;52.550;13.148;2024-03-08T00:39:44;50.40;;;23.70;;
6209;SDS011;3138;52.550;13.148;2024-03-08T00:42:12;54.43;;;25.87;;
6209;SDS011;3138;52.550;13.148;2024-03-08T00:44:39;72.47;;;24.00;;
6209;SDS011;3138;52.550;13.148;2024-03-08T00:47:06;60.17;;;24.20;;
6209;SDS011;3138;52.550;13.148;2024-03-08T00:49:33;54.63;;;25.17;;
6209;SDS011;3138;52.550;13.148;2024-03-08T00:52:01;50.47;;;24.70;;
6209;SDS011;3138;52.550;13.148;2024-03-08T00:54:28;52.77;;;24.93;;
6209;SDS011;3138;52.550;13.148;2024-03-08T00:56:55;62.17;;;25.13;;
6209;SDS011;3138;52.550;13.148;2024-03-08T00:59:23;51.97;;;25.00;;
6209;SDS011;3138;52.550;13.148;2024-03-08T01:01:50;54.07;;;25.90;;
6209;SDS011;3138;52.550;13.148;2024-03-08T01:04:17;57.23;;;26.37;;
6209;SDS011;3138;52.550;13.148;2024-03-08T01:06:45;58.63;;;27.43;;
6209;SDS011;3138;52.550;13.148;2024-03-08T01:09:12;61.53;;;28.30;;
6209;SDS011;3138;52.550;13.148;2024-03-08T01:11:39;56.93;;;25.37;;
6209;SDS011;3138;52.550;13.148;2024-03-08T01:14:07;57.03;;;25.20;;
6209;SDS011;3138;52.550;13.148;2024-03-08T01:16:35;50.27;;;24.87;;
6209;SDS011;3138;52.550;13.148;2024-03-08T01:19:02;63.10;;;27.50;;
6209;SDS011;3138;52.550;13.148;2024-03-08T01:21:29;56.43;;;25.67;;
6209;SDS011;3138;52.550;13.148;2024-03-08T01:23:56;55.40;;;26.60;;
6209;SDS011;3138;52.550;13.148;2024-03-08T01:26:23;59.83;;;27.20;;
6209;SDS011;3138;52.550;13.148;2024-03-08T01:28:49;64.67;;;27.93;;
6209;SDS011;3138;52.550;13.148;2024-03-08T01:31:16;57.53;;;25.20;;
6209;SDS011;3138;52.550;13.148;2024-03-08T01:33:44;55.17;;;25.60;;
6209;SDS011;3138;52.550;13.148;2024-03-08T01:36:11;56.07;;;25.33;;
6209;SDS011;3138;52.550;13.148;2024-03-08T01:38:40;49.23;;;25.73;;
6209;SDS011;3138;52.550;13.148;2024-03-08T01:41:07;65.17;;;26.23;;
6209;SDS011;3138;52.550;13.148;2024-03-08T01:43:34;48.87;;;24.60;;
6209;SDS011;3138;52.550;13.148;2024-03-08T01:46:01;54.37;;;25.97;;
6209;SDS011;3138;52.550;13.148;2024-03-08T01:48:28;66.17;;;27.87;;
6209;SDS011;3138;52.550;13.148;2024-03-08T01:50:57;57.03;;;26.90;;
6209;SDS011;3138;52.550;13.148;2024-03-08T01:53:25;60.90;;;27.00;;
6209;SDS011;3138;52.550;13.148;2024-03-08T01:55:53;67.20;;;25.40;;
6209;SDS011;3138;52.550;13.148;2024-03-08T01:58:22;56.00;;;24.57;;
6209;SDS011;3138;52.550;13.148;2024-03-08T02:00:50;47.37;;;23.40;;
6209;SDS011;3138;52.550;13.148;2024-03-08T02:03:18;60.73;;;25.10;;
6209;SDS011;3138;52.550;13.148;2024-03-08T02:05:46;62.03;;;27.30;;
6209;SDS011;3138;52.550;13.148;2024-03-08T02:08:14;73.87;;;28.13;;
6209;SDS011;3138;52.550;13.148;2024-03-08T02:10:43;58.93;;;27.70;;
6209;SDS011;3138;52.550;13.148;2024-03-08T02:13:10;66.47;;;27.20;;
6209;SDS011;3138;52.550;13.148;2024-03-08T02:15:49;60.70;;;27.30;;
6209;SDS011;3138;52.550;13.148;2024-03-08T02:18:17;47.93;;;24.13;;
6209;SDS011;3138;52.550;13.148;2024-03-08T02:20:46;74.63;;;28.20;;
6209;SDS011;3138;52.550;13.148;2024-03-08T02:23:13;58.23;;;28.77;;
6209;SDS011;3138;52.550;13.148;2024-03-08T02:25:40;68.63;;;27.50;;
6209;SDS011;3138;52.550;13.148;2024-03-08T02:28:08;61.00;;;26.80;;
6209;SDS011;3138;52.550;13.148;2024-03-08T02:30:36;63.20;;;26.67;;
6209;SDS011;3138;52.550;13.148;2024-03-08T02:33:03;64.17;;;28.60;;
6209;SDS011;3138;52.550;13.148;2024-03-08T02:35:30;56.57;;;27.60;;
6209;SDS011;3138;52.550;13.148;2024-03-08T02:37:58;53.53;;;26.50;;
6209;SDS011;3138;52.550;13.148;2024-03-08T02:40:25;58.03;;;27.10;;
6209;SDS011;3138;52.550;13.148;2024-03-08T02:42:52;65.37;;;27.80;;
6209;SDS011;3138;52.550;13.148;2024-03-08T02:45:19;58.77;;;27.43;;
6209;SDS011;3138;52.550;13.148;2024-03-08T02:47:46;53.97;;;27.47;;
6209;SDS011;3138;52.550;13.148;2024-03-08T02:50:14;54.97;;;25.80;;
6209;SDS011;3138;52.550;13.148;2024-03-08T02:52:41;52.03;;;25.27;;
6209;SDS011;3138;52.550;13.148;2024-03-08T02:55:10;63.37;;;25.47;;
6209;SDS011;3138;52.550;13.148;2024-03-08T02:57:40;54.57;;;27.20;;
6209;SDS011;3138;52.550;13.148;2024-03-08T03:00:08;77.73;;;28.03;;
6209;SDS011;3138;52.550;13.148;2024-03-08T03:02:36;61.17;;;25.67;;
6209;SDS011;3138;52.550;13.148;2024-03-08T03:05:03;61.30;;;26.40;;
6209;SDS011;3138;52.550;13.148;2024-03-08T03:07:31;60.47;;;26.90;;
6209;SDS011;3138;52.550;13.148;2024-03-08T03:09:58;62.17;;;25.87;;
6209;SDS011;3138;52.550;13.148;2024-03-08T03:12:28;65.20;;;26.30;;
6209;SDS011;3138;52.550;13.148;2024-03-08T03:14:55;78.93;;;28.00;;
6209;SDS011;3138;52.550;13.148;2024-03-08T03:17:22;54.20;;;26.90;;
6209;SDS011;3138;52.550;13.148;2024-03-08T03:19:49;59.30;;;26.47;;
6209;SDS011;3138;52.550;13.148;2024-03-08T03:22:17;50.50;;;23.93;;
6209;SDS011;3138;52.550;13.148;2024-03-08T03:24:44;56.23;;;24.23;;
6209;SDS011;3138;52.550;13.148;2024-03-08T03:27:11;58.87;;;25.20;;
6209;SDS011;3138;52.550;13.148;2024-03-08T03:29:40;60.07;;;26.67;;
6209;SDS011;3138;52.550;13.148;2024-03-08T03:32:10;56.90;;;28.23;;
6209;SDS011;3138;52.550;13.148;2024-03-08T03:34:37;59.47;;;27.33;;
6209;SDS011;3138;52.550;13.148;2024-03-08T03:37:04;60.90;;;27.30;;
6209;SDS011;3138;52.550;13.148;2024-03-08T03:39:33;77.60;;;28.07;;
6209;SDS011;3138;52.550;13.148;2024-03-08T03:42:05;64.70;;;26.70;;
6209;SDS011;3138;52.550;13.148;2024-03-08T03:44:32;59.00;;;27.90;;
6209;SDS011;3138;52.550;13.148;2024-03-08T03:47:00;65.43;;;25.90;;
6209;SDS011;3138;52.550;13.148;2024-03-08T03:49:27;77.50;;;31.33;;
6209;SDS011;3138;52.550;13.148;2024-03-08T03:51:54;71.80;;;29.73;;
6209;SDS011;3138;52.550;13.148;2024-03-08T03:54:21;64.80;;;27.87;;
6209;SDS011;3138;52.550;13.148;2024-03-08T03:56:48;65.53;;;27.83;;
6209;SDS011;3138;52.550;13.148;2024-03-08T03:59:17;62.43;;;26.40;;
6209;SDS011;3138;52.550;13.148;2024-03-08T04:01:44;76.50;;;29.77;;
6209;SDS011;3138;52.550;13.148;2024-03-08T04:04:12;78.87;;;31.20;;
6209;SDS011;3138;52.550;13.148;2024-03-08T04:06:39;67.87;;;28.80;;
6209;SDS011;3138;52.550;13.148;2024-03-08T04:09:06;61.97;;;28.67;;
6209;SDS011;3138;52.550;13.148;2024-03-08T04:11:33;68.90;;;30.70;;
6209;SDS011;3138;52.550;13.148;2024-03-08T04:14:00;67.83;;;30.80;;
6209;SDS011;3138;52.550;13.148;2024-03-08T04:16:27;73.37;;;30.97;;
6209;SDS011;3138;52.550;13.148;2024-03-08T04:18:53;69.20;;;29.50;;
6209;SDS011;3138;52.550;13.148;2024-03-08T04:21:21;69.10;;;29.90;;
6209;SDS011;3138;52.550;13.148;2024-03-08T04:23:48;74.13;;;32.00;;
6209;SDS011;3138;52.550;13.148;2024-03-08T04:26:15;60.60;;;26.70;;
6209;SDS011;3138;52.550;13.148;2024-03-08T04:28:43;60.00;;;29.13;;
6209;SDS011;3138;52.550;13.148;2024-03-08T04:31:10;64.67;;;29.67;;
6209;SDS011;3138;52.550;13.148;2024-03-08T04:33:37;67.40;;;30.27;;
6209;SDS011;3138;52.550;13.148;2024-03-08T04:36:04;63.30;;;27.17;;
6209;SDS011;3138;52.550;13.148;2024-03-08T04:38:34;74.07;;;28.67;;
6209;SDS011;3138;52.550;13.148;2024-03-08T04:41:01;68.40;;;29.60;;
6209;SDS011;3138;52.550;13.148;2024-03-08T04:43:28;52.10;;;26.10;;
6209;SDS011;3138;52.550;13.148;2024-03-08T04:45:55;64.53;;;30.13;;
6209;SDS011;3138;52.550;13.148;2024-03-08T04:48:22;67.13;;;28.67;;
6209;SDS011;3138;52.550;13.148;2024-03-08T04:50:51;62.43;;;29.67;;
6209;SDS011;3138;52.550;13.148;2024-03-08T04:53:19;67.37;;;28.37;;
6209;SDS011;3138;52.550;13.148;2024-03-08T04:55:47;69.90;;;28.47;;
6209;SDS011;3138;52.550;13.148;2024-03-08T04:58:14;61.83;;;28.67;;
6209;SDS011;3138;52.550;13.148;2024-03-08T05:00:41;62.27;;;29.63;;
6209;SDS011;3138;52.550;13.148;2024-03-08T05:03:08;70.30;;;29.93;;
6209;SDS011;3138;52.550;13.148;2024-03-08T05:05:35;64.77;;;28.00;;
6209;SDS011;3138;52.550;13.148;2024-03-08T05:08:02;61.33;;;28.13;;
6209;SDS011;3138;52.550;13.148;2024-03-08T05:10:29;68.33;;;31.00;;
6209;SDS011;3138;52.550;13.148;2024-03-08T05:12:57;67.77;;;29.20;;
6209;SDS011;3138;52.550;13.148;2024-03-08T05:15:24;77.60;;;30.30;;
6209;SDS011;3138;52.550;13.148;2024-03-08T05:17:51;78.50;;;31.67;;
6209;SDS011;3138;52.550;13.148;2024-03-08T05:20:17;73.70;;;31.30;;
6209;SDS011;3138;52.550;13.148;2024-03-08T05:22:44;72.33;;;29.97;;
6209;SDS011;3138;52.550;13.148;2024-03-08T05:25:11;74.77;;;31.80;;
6209;SDS011;3138;52.550;13.148;2024-03-08T05:27:39;81.10;;;30.83;;
6209;SDS011;3138;52.550;13.148;2024-03-08T05:30:08;68.10;;;31.00;;
6209;SDS011;3138;52.550;13.148;2024-03-08T05:32:39;67.97;;;30.40;;
6209;SDS011;3138;52.550;13.148;2024-03-08T05:35:09;69.03;;;31.47;;
6209;SDS011;3138;52.550;13.148;2024-03-08T05:37:37;77.00;;;31.73;;
6209;SDS011;3138;52.550;13.148;2024-03-08T05:40:05;60.00;;;27.73;;
6209;SDS011;3138;52.550;13.148;2024-03-08T05:42:34;66.03;;;29.40;;
6209;SDS011;3138;52.550;13.148;2024-03-08T05:45:02;58.10;;;27.50;;
6209;SDS011;3138;52.550;13.148;2024-03-08T05:47:30;58.27;;;28.17;;
6209;SDS011;3138;52.550;13.148;2024-03-08T05:49:57;70.03;;;29.77;;
6209;SDS011;3138;52.550;13.148;2024-03-08T05:52:24;69.47;;;30.57;;
6209;SDS011;3138;52.550;13.148;2024-03-08T05:54:52;95.03;;;31.00;;
6209;SDS011;3138;52.550;13.148;2024-03-08T05:57:18;74.00;;;30.47;;
6209;SDS011;3138;52.550;13.148;2024-03-08T05:59:47;71.50;;;31.60;;
6209;SDS011;3138;52.550;13.148;2024-03-08T06:02:14;72.13;;;29.20;;
6209;SDS011;3138;52.550;13.148;2024-03-08T06:04:45;67.23;;;28.50;;
6209;SDS011;3138;52.550;13.148;2024-03-08T06:07:13;75.33;;;31.77;;
6209;SDS011;3138;52.550;13.148;2024-03-08T06:09:39;70.90;;;32.37;;
6209;SDS011;3138;52.550;13.148;2024-03-08T06:12:10;67.60;;;30.07;;
6209;SDS011;3138;52.550;13.148;2024-03-08T06:14:37;64.87;;;31.27;;
6209;SDS011;3138;52.550;13.148;2024-03-08T06:17:04;71.40;;;31.37;;
6209;SDS011;3138;52.550;13.148;2024-03-08T06:19:32;57.23;;;27.20;;
6209;SDS011;3138;52.550;13.148;2024-03-08T06:22:00;71.67;;;30.67;;
6209;SDS011;3138;52.550;13.148;2024-03-08T06:24:30;72.07;;;32.27;;
6209;SDS011;3138;52.550;13.148;2024-03-08T06:26:57;71.43;;;31.90;;
6209;SDS011;3138;52.550;13.148;2024-03-08T06:29:24;70.07;;;31.43;;
6209;SDS011;3138;52.550;13.148;2024-03-08T06:31:51;77.23;;;32.73;;
6209;SDS011;3138;52.550;13.148;2024-03-08T06:34:18;80.47;;;36.27;;
6209;SDS011;3138;52.550;13.148;2024-03-08T06:36:45;67.73;;;33.00;;
6209;SDS011;3138;52.550;13.148;2024-03-08T06:39:13;74.30;;;32.93;;
6209;SDS011;3138;52.550;13.148;2024-03-08T06:41:40;82.20;;;31.97;;
6209;SDS011;3138;52.550;13.148;2024-03-08T06:44:09;87.57;;;36.77;;
6209;SDS011;3138;52.550;13.148;2024-03-08T06:46:36;73.00;;;35.50;;
6209;SDS011;3138;52.550;13.148;2024-03-08T06:49:03;83.97;;;35.57;;
6209;SDS011;3138;52.550;13.148;2024-03-08T06:51:30;76.90;;;33.63;;
6209;SDS011;3138;52.550;13.148;2024-03-08T06:53:57;75.40;;;35.97;;
6209;SDS011;3138;52.550;13.148;2024-03-08T06:56:25;88.17;;;37.20;;
6209;SDS011;3138;52.550;13.148;2024-03-08T06:58:52;79.17;;;34.37;;
6209;SDS011;3138;52.550;13.148;2024-03-08T07:01:19;71.03;;;33.33;;
6209;SDS011;3138;52.550;13.148;2024-03-08T07:03:46;79.10;;;34.60;;
6209;SDS011;3138;52.550;13.148;2024-03-08T07:06:13;87.23;;;36.57;;
6209;SDS011;3138;52.550;13.148;2024-03-08T07:08:40;71.73;;;33.50;;
6209;SDS011;3138;52.550;13.148;2024-03-08T07:11:11;78.70;;;35.17;;
6209;SDS011;3138;52.550;13.148;2024-03-08T07:13:39;70.13;;;34.53;;
6209;SDS011;3138;52.550;13.148;2024-03-08T07:16:06;71.63;;;32.80;;
6209;SDS011;3138;52.550;13.148;2024-03-08T07:18:33;79.77;;;36.20;;
6209;SDS011;3138;52.550;13.148;2024-03-08T07:21:04;74.50;;;34.93;;
6209;SDS011;3138;52.550;13.148;2024-03-08T07:23:31;72.70;;;33.03;;
6209;SDS011;3138;52.550;13.148;2024-03-08T07:26:27;72.93;;;37.10;;
6209;SDS011;3138;52.550;13.148;2024-03-08T07:28:56;69.53;;;35.33;;
6209;SDS011;3138;52.550;13.148;2024-03-08T07:31:25;74.47;;;34.90;;
6209;SDS011;3138;52.550;13.148;2024-03-08T07:34:09;73.63;;;32.43;;
6209;SDS011;3138;52.550;13.148;2024-03-08T07:36:36;71.57;;;34.53;;
6209;SDS011;3138;52.550;13.148;2024-03-08T07:39:03;76.37;;;34.50;;
6209;SDS011;3138;52.550;13.148;2024-03-08T07:41:34;63.80;;;32.30;;
6209;SDS011;3138;52.550;13.148;2024-03-08T07:44:02;70.30;;;33.17;;
6209;SDS011;3138;52.550;13.148;2024-03-08T07:46:29;67.37;;;33.90;;
6209;SDS011;3138;52.550;13.148;2024-03-08T07:48:56;73.63;;;35.07;;
6209;SDS011;3138;52.550;13.148;2024-03-08T07:51:23;62.13;;;34.53;;
6209;SDS011;3138;52.550;13.148;2024-03-08T07:53:50;65.60;;;31.53;;
6209;SDS011;3138;52.550;13.148;2024-03-08T07:56:17;71.07;;;31.43;;
6209;SDS011;3138;52.550;13.148;2024-03-08T07:58:44;68.27;;;32.33;;
6209;SDS011;3138;52.550;13.148;2024-03-08T08:01:16;64.80;;;31.50;;
6209;SDS011;3138;52.550;13.148;2024-03-08T08:03:44;60.57;;;31.40;;
6209;SDS011;3138;52.550;13.148;2024-03-08T08:06:14;71.40;;;32.70;;
6209;SDS011;3138;52.550;13.148;2024-03-08T08:08:41;68.00;;;30.27;;
6209;SDS011;3138;52.550;13.148;2024-03-08T08:11:08;61.60;;;30.27;;
6209;SDS011;3138;52.550;13.148;2024-03-08T08:13:36;68.07;;;30.83;;
6209;SDS011;3138;52.550;13.148;2024-03-08T08:16:04;66.10;;;30.70;;
6209;SDS011;3138;52.550;13.148;2024-03-08T08:18:33;69.20;;;31.70;;
6209;SDS011;3138;52.550;13.148;2024-03-08T08:21:01;68.17;;;31.07;;
6209;SDS011;3138;52.550;13.148;2024-03-08T08:23:28;52.40;;;29.20;;
6209;SDS011;3138;52.550;13.148;2024-03-08T08:25:55;74.90;;;31.20;;
6209;SDS011;3138;52.550;13.148;2024-03-08T08:28:22;64.03;;;29.77;;
6209;SDS011;3138;52.550;13.148;2024-03-08T08:30:49;66.70;;;30.73;;
6209;SDS011;3138;52.550;13.148;2024-03-08T08:33:17;73.57;;;31.20;;
6209;SDS011;3138;52.550;13.148;2024-03-08T08:35:46;61.70;;;30.40;;
6209;SDS011;3138;52.550;13.148;2024-03-08T08:38:13;57.83;;;28.50;;
6209;SDS011;3138;52.550;13.148;2024-03-08T08:40:40;63.17;;;30.20;;
6209;SDS011;3138;52.550;13.148;2024-03-08T08:43:07;70.67;;;30.50;;
6209;SDS011;3138;52.550;13.148;2024-03-08T08:45:34;75.67;;;33.63;;
6209;SDS011;3138;52.550;13.148;2024-03-08T08:48:01;67.13;;;33.70;;
6209;SDS011;3138;52.550;13.148;2024-03-08T08:50:28;71.03;;;33.00;;
6209;SDS011;3138;52.550;13.148;2024-03-08T08:52:57;76.97;;;36.87;;
6209;SDS011;3138;52.550;13.148;2024-03-08T08:55:24;76.63;;;36.77;;
6209;SDS011;3138;52.550;13.148;2024-03-08T08:57:51;73.43;;;38.37;;
6209;SDS011;3138;52.550;13.148;2024-03-08T09:00:18;94.63;;;40.83;;
6209;SDS011;3138;52.550;13.148;2024-03-08T09:02:46;57.80;;;29.40;;
6209;SDS011;3138;52.550;13.148;2024-03-08T09:05:13;44.57;;;23.23;;
6209;SDS011;3138;52.550;13.148;2024-03-08T09:07:42;37.30;;;20.20;;
6209;SDS011;3138;52.550;13.148;2024-03-08T09:10:11;45.23;;;23.10;;
6209;SDS011;3138;52.550;13.148;2024-03-08T09:12:39;39.57;;;19.70;;
6209;SDS011;3138;52.550;13.148;2024-03-08T09:15:06;37.63;;;20.00;;
6209;SDS011;3138;52.550;13.148;2024-03-08T09:17:36;49.67;;;22.20;;
6209;SDS011;3138;52.550;13.148;2024-03-08T09:20:04;46.30;;;22.50;;
6209;SDS011;3138;52.550;13.148;2024-03-08T09:22:32;54.07;;;21.80;;
6209;SDS011;3138;52.550;13.148;2024-03-08T09:24:59;49.27;;;22.03;;
6209;SDS011;3138;52.550;13.148;2024-03-08T09:27:27;42.83;;;23.10;;
6209;SDS011;3138;52.550;13.148;2024-03-08T09:29:55;54.23;;;25.97;;
6209;SDS011;3138;52.550;13.148;2024-03-08T09:32:22;47.40;;;25.03;;
6209;SDS011;3138;52.550;13.148;2024-03-08T09:34:48;55.87;;;24.70;;
6209;SDS011;3138;52.550;13.148;2024-03-08T09:37:16;50.93;;;25.90;;
6209;SDS011;3138;52.550;13.148;2024-03-08T09:39:43;57.37;;;26.60;;
6209;SDS011;3138;52.550;13.148;2024-03-08T09:42:11;54.20;;;27.50;;
6209;SDS011;3138;52.550;13.148;2024-03-08T09:44:41;43.00;;;25.27;;
6209;SDS011;3138;52.550;13.148;2024-03-08T09:47:11;55.33;;;26.20;;
6209;SDS011;3138;52.550;13.148;2024-03-08T09:49:40;61.20;;;27.70;;
6209;SDS011;3138;52.550;13.148;2024-03-08T09:52:08;54.07;;;26.67;;
6209;SDS011;3138;52.550;13.148;2024-03-08T09:54:35;62.13;;;27.50;;
6209;SDS011;3138;52.550;13.148;2024-03-08T09:57:03;51.67;;;26.50;;
6209;SDS011;3138;52.550;13.148;2024-03-08T09:59:30;46.67;;;26.03;;
6209;SDS011;3138;52.550;13.148;2024-03-08T10:02:15;52.70;;;25.63;;
6209;SDS011;3138;52.550;13.148;2024-03-08T10:04:42;50.57;;;27.10;;
6209;SDS011;3138;52.550;13.148;2024-03-08T10:07:12;53.23;;;26.37;;
6209;SDS011;3138;52.550;13.148;2024-03-08T10:09:39;57.53;;;27.70;;
6209;SDS011;3138;52.550;13.148;2024-03-08T10:12:12;53.33;;;27.50;;
6209;SDS011;3138;52.550;13.148;2024-03-08T10:14:39;46.97;;;25.60;;
6209;SDS011;3138;52.550;13.148;2024-03-08T10:17:07;53.77;;;26.63;;
6209;SDS011;3138;52.550;13.148;2024-03-08T10:19:35;39.37;;;22.90;;
6209;SDS011;3138;52.550;13.148;2024-03-08T10:22:02;58.70;;;25.70;;
6209;SDS011;3138;52.550;13.148;2024-03-08T10:24:30;42.60;;;24.07;;
6209;SDS011;3138;52.550;13.148;2024-03-08T10:26:59;48.67;;;24.73;;
6209;SDS011;3138;52.550;13.148;2024-03-08T10:29:27;46.00;;;24.80;;
6209;SDS011;3138;52.550;13.148;2024-03-08T10:31:54;49.93;;;25.97;;
6209;SDS011;3138;52.550;13.148;2024-03-08T10:34:22;42.67;;;24.40;;
6209;SDS011;3138;52.550;13.148;2024-03-08T10:36:51;47.13;;;24.53;;
6209;SDS011;3138;52.550;13.148;2024-03-08T10:39:21;50.47;;;25.07;;
6209;SDS011;3138;52.550;13.148;2024-03-08T10:41:50;42.07;;;23.73;;
6209;SDS011;3138;52.550;13.148;2024-03-08T10:44:38;48.03;;;25.10;;
6209;SDS011;3138;52.550;13.148;2024-03-08T10:47:12;57.03;;;23.93;;
6209;SDS011;3138;52.550;13.148;2024-03-08T10:49:49;46.50;;;23.90;;
6209;SDS011;3138;52.550;13.148;2024-03-08T10:52:21;47.43;;;23.43;;
6209;SDS011;3138;52.550;13.148;2024-03-08T10:54:48;46.53;;;23.83;;
6209;SDS011;3138;52.550;13.148;2024-03-08T10:57:18;43.97;;;23.30;;
6209;SDS011;3138;52.550;13.148;2024-03-08T10:59:47;49.17;;;24.73;;
6209;SDS011;3138;52.550;13.148;2024-03-08T11:02:14;69.70;;;23.83;;
6209;SDS011;3138;52.550;13.148;2024-03-08T11:04:45;46.70;;;23.77;;
6209;SDS011;3138;52.550;13.148;2024-03-08T11:07:14;44.93;;;22.37;;
6209;SDS011;3138;52.550;13.148;2024-03-08T11:09:46;41.90;;;21.37;;
6209;SDS011;3138;52.550;13.148;2024-03-08T11:12:21;49.40;;;24.10;;
6209;SDS011;3138;52.550;13.148;2024-03-08T11:14:51;38.33;;;20.83;;
6209;SDS011;3138;52.550;13.148;2024-03-08T11:17:26;38.77;;;22.40;;
6209;SDS011;3138;52.550;13.148;2024-03-08T11:20:08;45.50;;;22.93;;
6209;SDS011;3138;52.550;13.148;2024-03-08T11:22:40;45.60;;;23.13;;
6209;SDS011;3138;52.550;13.148;2024-03-08T11:25:30;43.03;;;23.00;;
6209;SDS011;3138;52.550;13.148;2024-03-08T11:28:14;41.57;;;20.57;;
6209;SDS011;3138;52.550;13.148;2024-03-08T11:30:44;42.93;;;22.43;;
6209;SDS011;3138;52.550;13.148;2024-03-08T11:33:13;41.30;;;22.40;;
6209;SDS011;3138;52.550;13.148;2024-03-08T11:35:41;36.13;;;20.17;;
6209;SDS011;3138;52.550;13.148;2024-03-08T11:38:11;34.07;;;19.63;;
6209;SDS011;3138;52.550;13.148;2024-03-08T11:40:39;39.30;;;21.80;;
6209;SDS011;3138;52.550;13.148;2024-03-08T11:43:07;31.57;;;20.10;;
6209;SDS011;3138;52.550;13.148;2024-03-08T11:45:34;38.40;;;22.53;;
6209;SDS011;3138;52.550;13.148;2024-03-08T11:48:02;40.00;;;21.00;;
6209;SDS011;3138;52.550;13.148;2024-03-08T11:50:29;37.77;;;21.67;;
6209;SDS011;3138;52.550;13.148;2024-03-08T11:53:00;37.50;;;20.43;;
6209;SDS011;3138;52.550;13.148;2024-03-08T11:55:28;35.10;;;20.30;;
6209;SDS011;3138;52.550;13.148;2024-03-08T11:58:02;31.80;;;19.63;;
6209;SDS011;3138;52.550;13.148;2024-03-08T12:00:29;40.70;;;18.93;;
6209;SDS011;3138;52.550;13.148;2024-03-08T12:03:03;36.70;;;18.83;;
6209;SDS011;3138;52.550;13.148;2024-03-08T12:05:31;31.30;;;18.07;;
6209;SDS011;3138;52.550;13.148;2024-03-08T12:07:59;31.27;;;20.10;;
6209;SDS011;3138;52.550;13.148;2024-03-08T12:10:26;39.97;;;20.13;;
6209;SDS011;3138;52.550;13.148;2024-03-08T12:12:54;32.57;;;19.40;;
6209;SDS011;3138;52.550;13.148;2024-03-08T12:15:25;24.40;;;15.23;;
6209;SDS011;3138;52.550;13.148;2024-03-08T12:17:54;33.47;;;18.20;;
6209;SDS011;3138;52.550;13.148;2024-03-08T12:20:23;32.40;;;19.13;;
6209;SDS011;3138;52.550;13.148;2024-03-08T12:22:51;31.23;;;17.97;;
6209;SDS011;3138;52.550;13.148;2024-03-08T12:25:21;34.37;;;18.90;;
6209;SDS011;3138;52.550;13.148;2024-03-08T12:27:48;33.57;;;17.97;;
6209;SDS011;3138;52.550;13.148;2024-03-08T12:30:18;35.27;;;20.30;;
6209;SDS011;3138;52.550;13.148;2024-03-08T12:32:52;36.23;;;20.47;;
6209;SDS011;3138;52.550;13.148;2024-03-08T12:35:21;36.53;;;20.97;;
6209;SDS011;3138;52.550;13.148;2024-03-08T12:37:50;35.33;;;21.50;;
6209;SDS011;3138;52.550;13.148;2024-03-08T12:40:18;37.53;;;20.40;;
6209;SDS011;3138;52.550;13.148;2024-03-08T12:42:52;41.17;;;21.30;;
6209;SDS011;3138;52.550;13.148;2024-03-08T12:45:18;30.07;;;19.13;;
6209;SDS011;3138;52.550;13.148;2024-03-08T12:47:47;41.10;;;20.27;;
6209;SDS011;3138;52.550;13.148;2024-03-08T12:50:16;28.23;;;18.20;;
6209;SDS011;3138;52.550;13.148;2024-03-08T12:52:43;33.93;;;18.30;;
6209;SDS011;3138;52.550;13.148;2024-03-08T12:55:09;37.70;;;22.03;;
6209;SDS011;3138;52.550;13.148;2024-03-08T12:57:37;33.93;;;20.07;;
6209;SDS011;3138;52.550;13.148;2024-03-08T13:00:05;44.70;;;21.93;;
6209;SDS011;3138;52.550;13.148;2024-03-08T13:02:38;32.03;;;20.50;;
6209;SDS011;3138;52.550;13.148;2024-03-08T13:05:05;41.83;;;21.10;;
6209;SDS011;3138;52.550;13.148;2024-03-08T13:07:36;36.40;;;20.50;;
6209;SDS011;3138;52.550;13.148;2024-03-08T13:10:03;38.47;;;20.07;;
6209;SDS011;3138;52.550;13.148;2024-03-08T13:12:32;35.37;;;19.90;;
6209;SDS011;3138;52.550;13.148;2024-03-08T13:15:00;32.80;;;18.33;;
6209;SDS011;3138;52.550;13.148;2024-03-08T13:17:30;38.07;;;18.47;;
6209;SDS011;3138;52.550;13.148;2024-03-08T13:19:56;41.47;;;20.57;;
6209;SDS011;3138;52.550;13.148;2024-03-08T13:22:24;33.77;;;19.33;;
6209;SDS011;3138;52.550;13.148;2024-03-08T13:24:52;62.33;;;20.27;;
6209;SDS011;3138;52.550;13.148;2024-03-08T13:27:19;42.17;;;19.03;;
6209;SDS011;3138;52.550;13.148;2024-03-08T13:29:47;41.07;;;19.20;;
6209;SDS011;3138;52.550;13.148;2024-03-08T13:32:14;38.37;;;19.70;;
6209;SDS011;3138;52.550;13.148;2024-03-08T13:34:41;37.50;;;20.67;;
6209;SDS011;3138;52.550;13.148;2024-03-08T13:37:10;38.23;;;20.40;;
6209;SDS011;3138;52.550;13.148;2024-03-08T13:39:37;38.20;;;20.70;;
6209;SDS011;3138;52.550;13.148;2024-03-08T13:42:10;35.70;;;20.17;;
6209;SDS011;3138;52.550;13.148;2024-03-08T13:44:38;37.60;;;20.30;;
6209;SDS011;3138;52.550;13.148;2024-03-08T13:47:06;40.57;;;19.00;;
6209;SDS011;3138;52.550;13.148;2024-03-08T13:49:33;38.87;;;18.70;;
6209;SDS011;3138;52.550;13.148;2024-03-08T13:52:01;33.23;;;18.67;;
6209;SDS011;3138;52.550;13.148;2024-03-08T13:54:29;34.47;;;20.50;;
6209;SDS011;3138;52.550;13.148;2024-03-08T13:56:56;36.83;;;20.03;;
6209;SDS011;3138;52.550;13.148;2024-03-08T13:59:25;37.50;;;18.13;;
6209;SDS011;3138;52.550;13.148;2024-03-08T14:01:54;35.60;;;20.20;;
6209;SDS011;3138;52.550;13.148;2024-03-08T14:04:23;36.90;;;19.53;;
6209;SDS011;3138;52.550;13.148;2024-03-08T14:06:51;32.53;;;18.80;;
6209;SDS011;3138;52.550;13.148;2024-03-08T14:09:21;34.60;;;20.53;;
6209;SDS011;3138;52.550;13.148;2024-03-08T14:11:50;30.50;;;18.90;;
6209;SDS011;3138;52.550;13.148;2024-03-08T14:14:19;28.50;;;18.37;;
6209;SDS011;3138;52.550;13.148;2024-03-08T14:16:49;31.83;;;19.40;;
6209;SDS011;3138;52.550;13.148;2024-03-08T14:19:18;31.10;;;18.50;;
6209;SDS011;3138;52.550;13.148;2024-03-08T14:21:45;37.50;;;20.37;;
6209;SDS011;3138;52.550;13.148;2024-03-08T14:24:13;36.63;;;18.37;;
6209;SDS011;3138;52.550;13.148;2024-03-08T14:26:40;31.40;;;19.27;;
6209;SDS011;3138;52.550;13.148;2024-03-08T14:29:07;29.20;;;17.53;;
6209;SDS011;3138;52.550;13.148;2024-03-08T14:31:35;44.60;;;19.43;;
6209;SDS011;3138;52.550;13.148;2024-03-08T14:34:04;38.97;;;18.47;;
6209;SDS011;3138;52.550;13.148;2024-03-08T14:36:32;36.80;;;20.00;;
6209;SDS011;3138;52.550;13.148;2024-03-08T14:38:59;34.00;;;18.03;;